Latest Weather Observations for Maria Island

IDT60801

Issued at 8:31 am EDT Sunday 23 February 2020 (issued every 10 minutes, with the page automatically refreshed every 10 minutes)

About weather observations | Map of weather stations | Latest weather observations for TAS | Other Formats
Station Details ID: 092124 Name: MARIA ISLAND (POINT LESUEUR) Lat: -42.66 Lon: 148.02 Height: 28.0 m
Data from the previous 72 hours. | See also: Recent months at Maria Island
Date/Time
EDT
Temp
°C
App
Temp
°C
Dew
Point
°C
Rel
Hum
%
Delta-T
°C
Wind Press
QNH
hPa
Press
MSL
hPa
Rain since
9am
mm
Dir  Spd
km/h
Gust
km/h
Spd
kts
Gust
kts
23/08:30am 14.5 14.1 12.5 88 1.1 NNW 6 7 3 4 1022.0 1022.0 0.0
23/08:00am 13.3 13.2 12.0 92 0.7 WNW 4 6 2 3 1022.1 1022.1 0.0
23/07:30am 12.9 12.7 11.8 93 0.6 N 4 6 2 3 1022.1 1022.1 0.0
23/07:00am 12.8 12.5 11.5 92 0.7 NNW 4 4 2 2 1021.9 1021.9 0.0
23/06:30am 12.6 12.6 11.2 91 0.7 WNW 2 4 1 2 1021.9 1021.9 0.0
23/06:00am 12.9 12.6 11.5 91 0.7 NNW 4 6 2 3 1021.8 1021.8 0.0
23/05:30am 13.3 13.5 11.7 90 0.9 N 2 2 1 1 1021.8 1021.8 0.0
23/05:00am 13.3 13.0 11.5 89 1.0 N 4 6 2 3 1021.9 1021.9 0.0
23/04:30am 13.2 12.4 11.6 90 0.9 NNE 7 9 4 5 1022.1 1022.1 0.0
23/04:00am 13.1 11.8 11.2 88 1.0 W 9 11 5 6 1022.0 1022.0 0.0
23/03:30am 13.2 12.3 11.3 88 1.0 NW 7 11 4 6 1022.1 1022.1 0.0
23/03:00am 13.6 12.9 11.5 87 1.1 N 6 7 3 4 1022.2 1022.2 0.0
23/02:30am 13.1 11.7 10.8 86 1.2 NNE 9 9 5 5 1022.2 1022.2 0.0
23/02:00am 13.5 12.5 10.9 84 1.4 NE 7 9 4 5 1022.4 1022.4 0.0
23/01:30am 14.2 13.3 10.8 80 1.8 NNE 6 7 3 4 1022.6 1022.6 0.0
23/01:00am 15.2 12.1 11.6 79 1.9 S 19 24 10 13 1022.5 1022.5 0.0
23/12:30am 15.4 11.4 11.8 79 1.9 S 24 28 13 15 1022.4 1022.4 0.0
23/12:00am 15.5 10.8 11.9 79 1.9 S 28 33 15 18 1022.4 1022.4 0.0
 
Date/Time
EDT
Temp
°C
App
Temp
°C
Dew
Point
°C
Rel
Hum
%
Delta-T
°C
Wind Press
QNH
hPa
Press
MSL
hPa
Rain since
9am
mm
Dir  Spd
km/h
Gust
km/h
Spd
kts
Gust
kts
22/11:30pm 15.8 12.1 12.7 82 1.7 S 24 32 13 17 1022.3 1022.3 0.0
22/11:00pm 15.9 12.7 13.2 84 1.5 SSW 22 28 12 15 1022.2 1022.2 0.0
22/10:30pm 15.9 13.2 13.6 86 1.3 S 20 24 11 13 1022.1 1022.1 0.0
22/10:00pm 16.2 13.3 14.0 87 1.2 S 22 24 12 13 1021.9 1021.9 0.0
22/09:30pm 16.7 14.7 14.0 84 1.5 SSW 17 20 9 11 1021.7 1021.7 0.0
22/09:00pm 16.7 17.0 13.4 81 1.8 SSW 4 6 2 3 1021.4 1021.4 0.0
22/08:30pm 16.9 16.6 12.8 77 2.3 W 6 7 3 4 1021.1 1021.1 0.0
22/08:00pm 17.8 18.0 13.1 74 2.6 N 4 7 2 4 1020.9 1020.9 0.0
22/07:30pm 17.8 16.3 13.1 74 2.6 N 13 17 7 9 1020.7 1020.7 0.0
22/07:00pm 18.6 17.5 13.0 70 3.1 NNW 11 15 6 8 1020.8 1020.8 0.0
22/06:30pm 19.6 18.8 11.6 60 4.4 WSW 7 9 4 5 1020.8 1020.8 0.0
22/06:00pm 19.6 18.0 11.4 59 4.5 SW 11 11 6 6 1020.8 1020.8 0.0
22/05:30pm 19.1 17.2 10.6 58 4.6 SSW 11 15 6 8 1021.0 1021.0 0.0
22/05:00pm 19.3 16.8 11.1 59 4.5 SSW 15 17 8 9 1021.3 1021.3 0.0
22/04:30pm 19.7 16.3 10.4 55 5.0 SSW 19 20 10 11 1021.3 1021.3 0.0
22/04:00pm 19.1 17.0 9.9 55 4.9 SW 11 13 6 7 1021.4 1021.4 0.0
22/03:30pm 18.7 17.3 9.5 55 4.9 SW 7 9 4 5 1021.9 1021.9 0.0
22/03:00pm 18.4 16.9 9.2 55 4.8 SSW 7 9 4 5 1022.3 1022.3 0.0
22/02:30pm 18.2 16.0 9.3 56 4.7 S 11 13 6 7 1022.6 1022.6 0.0
22/02:00pm 18.5 15.9 7.9 50 5.4 SSE 11 13 6 7 1022.8 1022.8 0.0
22/01:30pm 19.1 17.2 9.0 52 5.3 NNW 9 15 5 8 1022.8 1022.8 0.0
22/01:00pm 18.3 15.1 9.9 58 4.4 N 17 22 9 12 1023.1 1023.1 0.0
22/12:30pm 18.1 14.5 10.0 59 4.3 N 19 22 10 12 1023.5 1023.5 0.0
22/12:00pm 17.7 14.4 9.6 59 4.2 N 17 20 9 11 1023.4 1023.4 0.0
22/11:30am 17.0 14.2 7.1 52 4.9 N 11 17 6 9 1023.8 1023.8 0.0
22/11:00am 16.3 12.8 5.3 48 5.2 N 13 15 7 8 1023.9 1023.9 0.0
22/10:30am 15.4 12.8 5.9 53 4.6 N 9 11 5 6 1024.2 1024.2 0.0
22/10:00am 14.8 12.5 5.9 55 4.2 NW 7 9 4 5 1024.4 1024.4 0.0
22/09:30am 14.8 12.3 6.4 57 4.1 N 9 13 5 7 1024.2 1024.2 0.0
22/09:00am 12.9 10.5 7.1 68 2.8 NW 9 11 5 6 1024.3 1024.3 0.0
22/08:30am 12.3 9.9 7.2 71 2.5 WNW 9 11 5 6 1024.1 1024.1 0.0
22/08:00am 11.5 9.1 6.8 73 2.2 NW 9 11 5 6 1024.0 1024.0 0.0
22/07:30am 10.4 7.1 6.2 75 2.0 WNW 13 15 7 8 1023.8 1023.8 0.0
22/07:00am 10.2 6.5 6.4 77 1.8 WNW 15 17 8 9 1023.6 1023.6 0.0
22/06:30am 10.5 7.2 6.3 75 2.0 W 13 15 7 8 1023.3 1023.3 0.0
22/06:00am 9.9 6.5 6.1 77 1.7 W 13 15 7 8 1023.2 1023.2 0.0
22/05:30am 9.7 6.7 5.9 77 1.7 WNW 11 13 6 7 1023.0 1023.0 0.0
22/05:00am 10.0 7.4 6.3 78 1.7 NW 9 11 5 6 1022.8 1022.8 0.0
22/04:30am 10.1 7.5 6.1 76 1.9 WNW 9 13 5 7 1023.1 1023.1 0.0
22/04:00am 10.5 7.2 6.3 75 2.0 WNW 13 15 7 8 1023.2 1023.2 0.0
22/03:30am 10.6 7.3 6.4 75 2.0 WNW 13 15 7 8 1023.1 1023.1 0.0
22/03:00am 10.8 7.2 6.7 76 1.9 W 15 17 8 9 1023.1 1023.1 0.0
22/02:30am 10.5 7.2 6.6 77 1.8 WNW 13 15 7 8 1023.2 1023.2 0.0
22/02:00am 10.8 7.5 6.6 75 2.0 WNW 13 15 7 8 1023.1 1023.1 0.0
22/01:30am 11.1 7.5 6.6 74 2.1 WNW 15 17 8 9 1023.1 1023.1 0.0
22/01:00am 11.3 8.1 7.0 75 2.0 W 13 15 7 8 1023.2 1023.2 0.0
22/12:30am 11.3 8.0 6.6 73 2.2 WNW 13 15 7 8 1023.1 1023.1 0.0
22/12:00am 11.6 8.7 6.7 72 2.3 W 11 13 6 7 1023.1 1023.1 0.0
 
Date/Time
EDT
Temp
°C
App
Temp
°C
Dew
Point
°C
Rel
Hum
%
Delta-T
°C
Wind Press
QNH
hPa
Press
MSL
hPa
Rain since
9am
mm
Dir  Spd
km/h
Gust
km/h
Spd
kts
Gust
kts
21/11:30pm 12.3 10.1 6.1 66 2.9 WSW 7 13 4 7 1023.0 1023.0 0.0
21/11:00pm 12.8 8.7 6.2 64 3.1 SSW 17 22 9 12 1023.0 1023.0 0.0
21/10:30pm 13.0 8.5 5.9 62 3.4 SSW 19 24 10 13 1022.7 1022.7 0.0
21/10:00pm 13.2 8.0 5.6 60 3.6 SSW 22 26 12 14 1022.7 1022.7 0.0
21/09:30pm 13.4 8.6 5.6 59 3.7 S 20 26 11 14 1022.6 1022.6 0.0
21/09:00pm 13.8 9.0 5.4 57 3.9 SSW 20 26 11 14 1021.9 1021.9 0.0
21/08:30pm 14.0 8.1 5.6 57 4.0 SSW 26 32 14 17 1021.1 1021.1 0.0
21/08:00pm 14.3 9.4 5.1 54 4.3 S 20 28 11 15 1020.7 1020.7 0.0
21/07:30pm 14.6 8.2 5.1 53 4.5 SSW 28 32 15 17 1020.0 1020.0 0.0
21/07:00pm 15.1 8.3 5.0 51 4.7 SSW 30 35 16 19 1019.6 1019.6 0.0
21/06:30pm 15.4 8.6 5.0 50 4.9 SSW 30 35 16 19 1019.2 1019.2 0.0
21/06:00pm 15.6 8.4 5.2 50 4.9 SSW 32 35 17 19 1018.8 1018.8 0.0
21/05:30pm 15.9 8.7 5.8 51 4.9 SSW 33 39 18 21 1018.6 1018.6 0.0
21/05:00pm 16.1 8.9 5.7 50 5.0 S 33 41 18 22 1018.5 1018.5 0.0
21/04:30pm 16.0 8.9 5.3 49 5.1 S 32 39 17 21 1018.3 1018.3 0.0
21/04:00pm 16.0 8.8 5.9 51 4.9 S 33 43 18 23 1018.2 1018.2 0.0
21/03:30pm 16.3 9.3 7.0 54 4.6 S 33 39 18 21 1018.3 1018.3 0.0
21/03:00pm 15.1 6.9 6.4 56 4.2 SSW 39 46 21 25 1018.3 1018.3 0.0
21/02:30pm 15.4 6.9 6.9 57 4.2 S 41 46 22 25 1018.3 1018.3 0.0
21/02:00pm 14.8 6.4 7.4 61 3.6 S 41 48 22 26 1018.1 1018.0 0.0
21/01:43pm 15.1 9.1 7.2 59 3.9 SSW 28 48 15 26 1018.0 1017.9 0.0
21/01:30pm 15.5 8.5 6.8 56 4.3 SSW 33 43 18 23 1017.9 1017.8 0.0
21/01:00pm 14.2 5.4 8.2 67 3.0 S 44 54 24 29 1017.6 1017.5 0.0
21/12:33pm 14.5 6.7 6.6 59 3.8 SSW 37 57 20 31 1017.3 1017.2 0.0
21/12:30pm 15.4 8.0 6.9 57 4.2 SSW 35 46 19 25 1017.4 1017.3 0.0
21/12:00pm 14.7 7.8 7.3 61 3.6 SW 33 39 18 21 1017.2 1017.1 0.0
21/11:30am 13.8 7.2 7.6 66 3.1 SW 32 39 17 21 1017.0 1016.9 0.0
21/11:00am 13.7 5.4 6.3 61 3.5 SW 39 56 21 30 1016.7 1016.6 0.0
21/10:30am 13.9 3.4 5.5 57 4.0 SW 50 61 27 33 1016.2 1016.1 0.0
21/10:12am 14.2 4.7 4.8 53 4.4 SW 44 65 24 35 1015.9 1015.8 0.0
21/10:00am 14.0 4.6 5.4 56 4.0 SW 44 59 24 32 1016.0 1015.9 0.0
21/09:30am 13.3 5.1 5.0 57 3.9 WSW 37 48 20 26 1015.9 1015.8 0.0
21/09:00am 13.0 4.5 5.2 59 3.6 SW 39 54 21 29 1015.3 1015.2 0.8
21/08:51am 12.9 5.5 4.8 58 3.7 SW 33 54 18 29 1015.2 1015.1 0.8
21/08:30am 12.2 4.9 4.7 60 3.4 WSW 32 43 17 23 1015.1 1015.0 0.8
21/08:00am 11.8 5.1 5.7 66 2.8 WSW 30 39 16 21 1014.7 1014.6 0.8
21/07:30am 11.3 4.9 5.4 67 2.7 WSW 28 35 15 19 1014.3 1014.2 0.8
21/07:00am 11.2 4.9 5.9 70 2.5 WSW 28 37 15 20 1013.9 1013.8 0.8
21/06:30am 11.4 5.6 6.3 71 2.4 WSW 26 32 14 17 1013.6 1013.5 0.8
21/06:00am 11.4 4.2 6.1 70 2.5 SW 33 43 18 23 1013.1 1013.0 0.8
21/05:30am 11.5 4.4 6.4 71 2.4 SW 33 39 18 21 1012.6 1012.5 0.8
21/05:00am 12.0 4.3 6.9 71 2.4 SW 37 50 20 27 1012.5 1012.4 0.8
21/04:30am 12.2 5.4 7.1 71 2.5 SW 32 39 17 21 1012.4 1012.3 0.8
21/04:00am 12.0 7.2 7.3 73 2.3 SW 22 28 12 15 1012.3 1012.2 0.8
21/03:30am 12.0 5.4 7.7 75 2.1 SW 32 39 17 21 1012.0 1011.9 0.8
21/03:00am 12.1 5.5 8.6 79 1.7 SW 33 44 18 24 1011.8 1011.7 0.8
21/02:30am 11.5 6.3 8.9 84 1.3 SW 26 39 14 21 1011.9 1011.8 0.8
21/02:00am 11.7 4.2 9.3 85 1.2 SW 39 46 21 25 1011.5 1011.4 0.6
21/01:38am 12.2 7.0 9.0 81 1.6 SSW 26 43 14 23 1011.5 1011.4 0.4
21/01:30am 12.6 8.7 8.7 77 1.9 SW 19 22 10 12 1011.5 1011.4 0.4
21/01:00am 12.8 8.8 8.9 77 2.0 WSW 20 24 11 13 1011.4 1011.3 0.4
21/12:30am 12.5 8.4 8.6 77 1.9 W 20 24 11 13 1011.5 1011.4 0.4
21/12:00am 13.3 7.2 8.2 71 2.5 WSW 30 33 16 18 1011.2 1011.1 0.2
 
Date/Time
EDT
Temp
°C
App
Temp
°C
Dew
Point
°C
Rel
Hum
%
Delta-T
°C
Wind Press
QNH
hPa
Press
MSL
hPa
Rain since
9am
mm
Dir  Spd
km/h
Gust
km/h
Spd
kts
Gust
kts
20/11:30pm 14.8 9.6 7.1 60 3.8 WSW 24 30 13 16 1010.9 1010.8 0.2
20/11:00pm 14.7 7.9 6.8 59 3.9 WSW 32 37 17 20 1010.5 1010.4 0.2
20/10:30pm 14.8 6.2 6.6 58 4.0 WSW 41 54 22 29 1010.0 1009.9 0.2
20/10:00pm 14.9 6.0 6.7 58 4.0 WSW 43 52 23 28 1009.8 1009.7 0.2
20/09:30pm 15.2 8.6 6.2 55 4.3 W 30 37 16 20 1009.9 1009.8 0.2
20/09:00pm 15.3 8.7 6.1 54 4.4 W 30 37 16 20 1009.8 1009.7 0.2
20/08:30pm 15.5 9.1 5.4 51 4.8 W 28 37 15 20 1009.6 1009.5 0.2
20/08:00pm 16.0 10.6 6.4 53 4.7 WSW 24 39 13 21 1009.7 1009.6 0.2
20/07:30pm 16.6 10.0 6.1 50 5.1 WSW 30 39 16 21 1009.3 1009.2 0.2
20/07:00pm 17.2 10.4 7.0 51 5.1 WSW 32 43 17 23 1009.0 1008.9 0.2
20/06:30pm 16.5 10.2 9.7 64 3.6 S 33 37 18 20 1008.8 1008.7 0.2
20/06:00pm 16.6 9.9 9.8 64 3.6 SSW 35 41 19 22 1008.9 1008.8 0.2
20/05:30pm 15.8 7.5 9.2 65 3.4 SSW 43 46 23 25 1008.9 1008.8 0.2
20/05:00pm 16.3 9.1 9.3 63 3.6 S 37 43 20 23 1008.8 1008.7 0.2
20/04:30pm 16.4 8.8 9.1 62 3.8 SSW 39 43 21 23 1008.9 1008.8 0.2
20/04:00pm 15.8 9.5 8.8 63 3.6 S 32 39 17 21 1009.1 1009.0 0.2
20/03:30pm 16.6 9.7 8.8 60 4.0 S 35 43 19 23 1009.4 1009.3 0.2
20/03:00pm 16.7 9.5 9.1 61 3.9 S 37 43 20 23 1009.5 1009.4 0.2
20/02:30pm 16.6 9.8 9.3 62 3.8 S 35 41 19 22 1009.7 1009.6 0.2
20/02:00pm 16.4 10.0 9.3 63 3.7 S 33 37 18 20 1009.8 1009.7 0.2
20/01:30pm 16.0 9.6 9.2 64 3.5 S 33 39 18 21 1010.2 1010.1 0.2
20/01:00pm 15.2 8.2 8.4 64 3.4 S 35 43 19 23 1010.4 1010.3 0.2
20/12:30pm 15.1 8.1 8.6 65 3.3 SSW 35 43 19 23 1010.7 1010.6 0.2
20/12:00pm 15.3 8.5 9.2 67 3.1 SSW 35 39 19 21 1010.6 1010.5 0.2
20/11:30am 14.7 7.9 9.3 70 2.8 SSW 35 41 19 22 1010.8 1010.7 0.2
20/11:00am 14.7 8.9 10.9 78 2.0 SSW 32 39 17 21 1011.0 1010.9 0.2
20/10:30am 13.7 6.5 10.7 82 1.6 SW 39 48 21 26 1011.0 1010.9 0.2
20/10:00am 13.6 7.7 11.3 86 1.2 SSW 33 41 18 22 1010.9 1010.8 0.2
20/09:30am 13.2 6.3 11.6 90 0.9 SW 39 50 21 27 1010.8 1010.7 0.2
20/09:00am 12.9 8.1 11.6 92 0.7 SSW 28 35 15 19 1010.9 1010.8 1.6

Other formats

Comma delimited format used in spreadsheet applications
http://www.bom.gov.au/fwo/IDT60801/IDT60801.95988.axf

JavaScript Object Notation format (JSON) in row-major order
http://www.bom.gov.au/fwo/IDT60801/IDT60801.95988.json

Data quality

Most of these data are generated automatically and are frequently updated. Quality checks on data are not normally performed. It is possible for incorrect values to appear. Refer to information at About Latest Weather Observations and please check the disclaimer before using these data.